sensor_id;sensor_type;location;lat;lon;timestamp;temperature;humidity
19174;DHT22;9719;49.322;8.536;2023-07-29T00:00:53;24.40;99.90
19174;DHT22;9719;49.322;8.536;2023-07-29T00:05:56;24.40;99.90
19174;DHT22;9719;49.322;8.536;2023-07-29T00:10:59;24.40;99.90
19174;DHT22;9719;49.322;8.536;2023-07-29T00:16:00;24.40;99.90
19174;DHT22;9719;49.322;8.536;2023-07-29T00:21:02;24.40;99.90
19174;DHT22;9719;49.322;8.536;2023-07-29T00:26:05;24.40;99.90
19174;DHT22;9719;49.322;8.536;2023-07-29T00:31:07;24.40;99.90
19174;DHT22;9719;49.322;8.536;2023-07-29T00:36:09;24.40;99.90
19174;DHT22;9719;49.322;8.536;2023-07-29T00:41:12;24.40;99.90
19174;DHT22;9719;49.322;8.536;2023-07-29T00:46:15;24.40;99.90
19174;DHT22;9719;49.322;8.536;2023-07-29T00:51:17;24.40;99.90
19174;DHT22;9719;49.322;8.536;2023-07-29T00:56:20;24.40;99.90
19174;DHT22;9719;49.322;8.536;2023-07-29T01:01:22;24.40;99.90
19174;DHT22;9719;49.322;8.536;2023-07-29T01:06:33;24.40;99.90
19174;DHT22;9719;49.322;8.536;2023-07-29T01:11:48;24.40;99.90
19174;DHT22;9719;49.322;8.536;2023-07-29T01:16:57;24.40;99.90
19174;DHT22;9719;49.322;8.536;2023-07-29T01:22:00;24.30;99.90
19174;DHT22;9719;49.322;8.536;2023-07-29T01:27:05;24.30;99.90
19174;DHT22;9719;49.322;8.536;2023-07-29T01:32:10;24.40;99.90
19174;DHT22;9719;49.322;8.536;2023-07-29T01:37:16;24.40;99.90
19174;DHT22;9719;49.322;8.536;2023-07-29T01:42:20;24.30;99.90
19174;DHT22;9719;49.322;8.536;2023-07-29T01:47:22;24.30;99.90
19174;DHT22;9719;49.322;8.536;2023-07-29T01:52:24;24.30;99.90
19174;DHT22;9719;49.322;8.536;2023-07-29T01:57:27;24.30;99.90
19174;DHT22;9719;49.322;8.536;2023-07-29T02:02:28;24.30;99.90
19174;DHT22;9719;49.322;8.536;2023-07-29T02:07:30;24.30;99.90
19174;DHT22;9719;49.322;8.536;2023-07-29T02:12:33;24.30;99.90
19174;DHT22;9719;49.322;8.536;2023-07-29T02:17:35;24.30;99.90
19174;DHT22;9719;49.322;8.536;2023-07-29T02:22:37;24.30;99.90
19174;DHT22;9719;49.322;8.536;2023-07-29T02:27:40;24.30;99.90
19174;DHT22;9719;49.322;8.536;2023-07-29T02:32:42;24.30;99.90
19174;DHT22;9719;49.322;8.536;2023-07-29T02:37:43;24.30;99.90
19174;DHT22;9719;49.322;8.536;2023-07-29T02:42:46;24.30;99.90
19174;DHT22;9719;49.322;8.536;2023-07-29T02:47:48;24.30;99.90
19174;DHT22;9719;49.322;8.536;2023-07-29T02:52:50;24.30;99.90
19174;DHT22;9719;49.322;8.536;2023-07-29T02:57:53;24.30;99.90
19174;DHT22;9719;49.322;8.536;2023-07-29T03:02:55;24.30;99.90
19174;DHT22;9719;49.322;8.536;2023-07-29T03:07:57;24.30;99.90
19174;DHT22;9719;49.322;8.536;2023-07-29T03:13:00;24.30;99.90
19174;DHT22;9719;49.322;8.536;2023-07-29T03:18:02;24.30;99.90
19174;DHT22;9719;49.322;8.536;2023-07-29T03:23:04;24.30;99.90
19174;DHT22;9719;49.322;8.536;2023-07-29T03:28:07;24.20;99.90
19174;DHT22;9719;49.322;8.536;2023-07-29T03:33:09;24.20;99.90
19174;DHT22;9719;49.322;8.536;2023-07-29T03:38:10;24.20;99.90
19174;DHT22;9719;49.322;8.536;2023-07-29T03:43:13;24.20;99.90
19174;DHT22;9719;49.322;8.536;2023-07-29T03:48:15;24.20;99.90
19174;DHT22;9719;49.322;8.536;2023-07-29T03:53:17;24.20;99.90
19174;DHT22;9719;49.322;8.536;2023-07-29T03:58:19;24.20;99.90
19174;DHT22;9719;49.322;8.536;2023-07-29T04:03:21;24.20;99.90
19174;DHT22;9719;49.322;8.536;2023-07-29T04:08:23;24.20;99.90
19174;DHT22;9719;49.322;8.536;2023-07-29T04:13:26;24.20;99.90
19174;DHT22;9719;49.322;8.536;2023-07-29T04:18:27;24.20;99.90
19174;DHT22;9719;49.322;8.536;2023-07-29T04:23:29;24.20;99.90
19174;DHT22;9719;49.322;8.536;2023-07-29T04:28:32;24.20;99.90
19174;DHT22;9719;49.322;8.536;2023-07-29T04:33:34;24.20;99.90
19174;DHT22;9719;49.322;8.536;2023-07-29T04:38:37;24.10;99.90
19174;DHT22;9719;49.322;8.536;2023-07-29T04:43:40;24.10;99.90
19174;DHT22;9719;49.322;8.536;2023-07-29T04:48:42;24.10;99.90
19174;DHT22;9719;49.322;8.536;2023-07-29T04:53:43;24.10;99.90
19174;DHT22;9719;49.322;8.536;2023-07-29T04:58:46;24.10;99.90
19174;DHT22;9719;49.322;8.536;2023-07-29T05:03:48;24.10;99.90
19174;DHT22;9719;49.322;8.536;2023-07-29T05:08:50;24.10;99.90
19174;DHT22;9719;49.322;8.536;2023-07-29T05:13:53;24.10;99.90
19174;DHT22;9719;49.322;8.536;2023-07-29T05:18:54;24.10;99.90
19174;DHT22;9719;49.322;8.536;2023-07-29T05:23:56;24.10;99.90
19174;DHT22;9719;49.322;8.536;2023-07-29T05:28:59;24.10;99.90
19174;DHT22;9719;49.322;8.536;2023-07-29T05:34:00;24.10;99.90
19174;DHT22;9719;49.322;8.536;2023-07-29T05:39:02;24.10;99.90
19174;DHT22;9719;49.322;8.536;2023-07-29T05:44:05;24.10;99.90
19174;DHT22;9719;49.322;8.536;2023-07-29T05:49:07;24.10;99.90
19174;DHT22;9719;49.322;8.536;2023-07-29T05:54:08;24.10;99.90
19174;DHT22;9719;49.322;8.536;2023-07-29T05:59:11;24.10;99.90
19174;DHT22;9719;49.322;8.536;2023-07-29T06:04:13;24.10;99.90
19174;DHT22;9719;49.322;8.536;2023-07-29T06:09:15;24.10;99.90
19174;DHT22;9719;49.322;8.536;2023-07-29T06:14:18;24.10;99.90
19174;DHT22;9719;49.322;8.536;2023-07-29T06:19:20;24.10;99.90
19174;DHT22;9719;49.322;8.536;2023-07-29T06:24:21;24.00;99.90
19174;DHT22;9719;49.322;8.536;2023-07-29T06:29:24;24.00;99.90
19174;DHT22;9719;49.322;8.536;2023-07-29T06:34:26;24.00;99.90
19174;DHT22;9719;49.322;8.536;2023-07-29T06:39:28;24.00;99.90
19174;DHT22;9719;49.322;8.536;2023-07-29T06:44:31;24.00;99.90
19174;DHT22;9719;49.322;8.536;2023-07-29T06:49:32;24.00;99.90
19174;DHT22;9719;49.322;8.536;2023-07-29T06:54:34;24.00;99.90
19174;DHT22;9719;49.322;8.536;2023-07-29T06:59:37;24.00;99.90
19174;DHT22;9719;49.322;8.536;2023-07-29T07:04:39;24.10;99.90
19174;DHT22;9719;49.322;8.536;2023-07-29T07:09:40;24.10;99.90
19174;DHT22;9719;49.322;8.536;2023-07-29T07:14:43;24.00;99.90
19174;DHT22;9719;49.322;8.536;2023-07-29T07:19:45;24.10;99.90
19174;DHT22;9719;49.322;8.536;2023-07-29T07:24:47;24.10;99.90
19174;DHT22;9719;49.322;8.536;2023-07-29T07:29:50;24.10;99.90
19174;DHT22;9719;49.322;8.536;2023-07-29T07:34:52;24.10;99.90
19174;DHT22;9719;49.322;8.536;2023-07-29T07:39:54;24.10;99.90
19174;DHT22;9719;49.322;8.536;2023-07-29T07:44:57;24.10;99.90
19174;DHT22;9719;49.322;8.536;2023-07-29T07:49:59;24.10;99.90
19174;DHT22;9719;49.322;8.536;2023-07-29T07:55:00;24.20;99.90
19174;DHT22;9719;49.322;8.536;2023-07-29T08:00:05;24.20;99.90
19174;DHT22;9719;49.322;8.536;2023-07-29T08:05:07;24.20;99.90
19174;DHT22;9719;49.322;8.536;2023-07-29T08:10:09;24.20;99.90
19174;DHT22;9719;49.322;8.536;2023-07-29T08:15:12;24.20;99.90
19174;DHT22;9719;49.322;8.536;2023-07-29T08:20:14;24.20;99.90
19174;DHT22;9719;49.322;8.536;2023-07-29T08:25:16;24.20;99.90
19174;DHT22;9719;49.322;8.536;2023-07-29T08:30:19;24.20;99.90
19174;DHT22;9719;49.322;8.536;2023-07-29T08:35:21;24.20;99.90
19174;DHT22;9719;49.322;8.536;2023-07-29T08:40:27;24.20;99.90
19174;DHT22;9719;49.322;8.536;2023-07-29T08:45:34;24.20;99.90
19174;DHT22;9719;49.322;8.536;2023-07-29T08:50:37;24.20;99.90
19174;DHT22;9719;49.322;8.536;2023-07-29T08:55:39;24.20;99.90
19174;DHT22;9719;49.322;8.536;2023-07-29T09:00:43;24.30;99.90
19174;DHT22;9719;49.322;8.536;2023-07-29T09:05:45;24.30;99.90
19174;DHT22;9719;49.322;8.536;2023-07-29T09:10:47;24.30;99.90
19174;DHT22;9719;49.322;8.536;2023-07-29T09:15:54;24.30;99.90
19174;DHT22;9719;49.322;8.536;2023-07-29T09:20:58;24.20;99.90
19174;DHT22;9719;49.322;8.536;2023-07-29T09:26:01;24.20;99.90
19174;DHT22;9719;49.322;8.536;2023-07-29T09:31:05;24.10;99.90
19174;DHT22;9719;49.322;8.536;2023-07-29T09:36:09;24.00;99.90
19174;DHT22;9719;49.322;8.536;2023-07-29T09:41:12;24.00;99.90
19174;DHT22;9719;49.322;8.536;2023-07-29T09:46:16;23.90;99.90
19174;DHT22;9719;49.322;8.536;2023-07-29T09:51:17;23.80;99.90
19174;DHT22;9719;49.322;8.536;2023-07-29T09:56:24;23.70;99.90
19174;DHT22;9719;49.322;8.536;2023-07-29T10:01:27;23.70;99.90
19174;DHT22;9719;49.322;8.536;2023-07-29T10:06:30;23.60;99.90
19174;DHT22;9719;49.322;8.536;2023-07-29T10:11:32;23.60;99.90
19174;DHT22;9719;49.322;8.536;2023-07-29T10:16:37;23.50;99.90
19174;DHT22;9719;49.322;8.536;2023-07-29T10:21:43;23.40;99.90
19174;DHT22;9719;49.322;8.536;2023-07-29T10:26:46;23.40;99.90
19174;DHT22;9719;49.322;8.536;2023-07-29T10:31:52;23.40;99.90
19174;DHT22;9719;49.322;8.536;2023-07-29T10:36:54;23.40;99.90
19174;DHT22;9719;49.322;8.536;2023-07-29T10:41:58;23.40;99.90
19174;DHT22;9719;49.322;8.536;2023-07-29T10:47:11;23.50;99.90
19174;DHT22;9719;49.322;8.536;2023-07-29T10:52:13;23.60;99.90
19174;DHT22;9719;49.322;8.536;2023-07-29T10:57:30;23.80;99.90
19174;DHT22;9719;49.322;8.536;2023-07-29T11:02:36;23.90;99.90
19174;DHT22;9719;49.322;8.536;2023-07-29T11:07:47;23.90;99.90
19174;DHT22;9719;49.322;8.536;2023-07-29T11:12:50;23.90;99.90
19174;DHT22;9719;49.322;8.536;2023-07-29T11:17:55;23.80;99.90
19174;DHT22;9719;49.322;8.536;2023-07-29T11:22:59;23.80;99.90
19174;DHT22;9719;49.322;8.536;2023-07-29T11:28:01;23.80;99.90
19174;DHT22;9719;49.322;8.536;2023-07-29T11:33:04;23.90;99.90
19174;DHT22;9719;49.322;8.536;2023-07-29T11:38:06;24.00;99.90
19174;DHT22;9719;49.322;8.536;2023-07-29T11:43:08;24.10;99.90
19174;DHT22;9719;49.322;8.536;2023-07-29T11:48:11;24.10;99.90
19174;DHT22;9719;49.322;8.536;2023-07-29T11:53:13;24.20;99.90
19174;DHT22;9719;49.322;8.536;2023-07-29T11:58:15;24.30;99.90
19174;DHT22;9719;49.322;8.536;2023-07-29T12:03:19;24.30;99.90
19174;DHT22;9719;49.322;8.536;2023-07-29T12:08:21;24.40;99.90
19174;DHT22;9719;49.322;8.536;2023-07-29T12:13:24;24.40;99.90
19174;DHT22;9719;49.322;8.536;2023-07-29T12:18:31;24.40;99.90
19174;DHT22;9719;49.322;8.536;2023-07-29T12:23:33;24.40;99.90
19174;DHT22;9719;49.322;8.536;2023-07-29T12:28:35;24.30;99.90
19174;DHT22;9719;49.322;8.536;2023-07-29T12:33:38;24.30;99.90
19174;DHT22;9719;49.322;8.536;2023-07-29T12:38:42;24.40;99.90
19174;DHT22;9719;49.322;8.536;2023-07-29T12:43:45;24.40;99.90
19174;DHT22;9719;49.322;8.536;2023-07-29T12:48:48;24.50;99.90
19174;DHT22;9719;49.322;8.536;2023-07-29T12:53:49;24.50;99.90
19174;DHT22;9719;49.322;8.536;2023-07-29T12:58:51;24.50;99.90
19174;DHT22;9719;49.322;8.536;2023-07-29T13:03:54;24.50;99.90
19174;DHT22;9719;49.322;8.536;2023-07-29T13:08:56;24.50;99.90
19174;DHT22;9719;49.322;8.536;2023-07-29T13:13:58;24.40;99.90
19174;DHT22;9719;49.322;8.536;2023-07-29T13:19:02;24.40;99.90
19174;DHT22;9719;49.322;8.536;2023-07-29T13:24:04;24.50;99.90
19174;DHT22;9719;49.322;8.536;2023-07-29T13:29:05;24.50;99.90
19174;DHT22;9719;49.322;8.536;2023-07-29T13:34:08;24.40;99.90
19174;DHT22;9719;49.322;8.536;2023-07-29T13:39:10;24.50;99.90
19174;DHT22;9719;49.322;8.536;2023-07-29T13:44:12;24.50;99.90
19174;DHT22;9719;49.322;8.536;2023-07-29T13:49:15;24.50;99.90
19174;DHT22;9719;49.322;8.536;2023-07-29T13:54:17;24.50;99.90
19174;DHT22;9719;49.322;8.536;2023-07-29T13:59:18;24.50;99.90
19174;DHT22;9719;49.322;8.536;2023-07-29T14:04:21;24.50;99.90
19174;DHT22;9719;49.322;8.536;2023-07-29T14:09:23;24.50;99.90
19174;DHT22;9719;49.322;8.536;2023-07-29T14:14:25;24.50;99.90
19174;DHT22;9719;49.322;8.536;2023-07-29T14:19:28;24.50;99.90
19174;DHT22;9719;49.322;8.536;2023-07-29T14:24:30;24.50;99.90
19174;DHT22;9719;49.322;8.536;2023-07-29T14:29:31;24.50;99.90
19174;DHT22;9719;49.322;8.536;2023-07-29T14:34:34;24.50;99.90
19174;DHT22;9719;49.322;8.536;2023-07-29T14:39:36;24.50;99.90
19174;DHT22;9719;49.322;8.536;2023-07-29T14:44:38;24.50;99.90
19174;DHT22;9719;49.322;8.536;2023-07-29T14:49:41;24.50;99.90
19174;DHT22;9719;49.322;8.536;2023-07-29T14:54:42;24.50;99.90
19174;DHT22;9719;49.322;8.536;2023-07-29T14:59:44;24.50;99.90
19174;DHT22;9719;49.322;8.536;2023-07-29T15:04:47;24.60;99.90
19174;DHT22;9719;49.322;8.536;2023-07-29T15:09:49;24.70;99.90
19174;DHT22;9719;49.322;8.536;2023-07-29T15:14:51;24.80;99.90
19174;DHT22;9719;49.322;8.536;2023-07-29T15:19:54;24.90;99.90
19174;DHT22;9719;49.322;8.536;2023-07-29T15:24:55;25.00;99.90
19174;DHT22;9719;49.322;8.536;2023-07-29T15:29:57;25.10;99.90
19174;DHT22;9719;49.322;8.536;2023-07-29T15:35:00;25.10;99.90
19174;DHT22;9719;49.322;8.536;2023-07-29T15:40:02;25.10;99.90
19174;DHT22;9719;49.322;8.536;2023-07-29T15:45:05;25.10;99.90
19174;DHT22;9719;49.322;8.536;2023-07-29T15:50:08;25.20;99.90
19174;DHT22;9719;49.322;8.536;2023-07-29T15:55:10;25.20;99.90
19174;DHT22;9719;49.322;8.536;2023-07-29T16:00:13;25.30;99.90
19174;DHT22;9719;49.322;8.536;2023-07-29T16:05:16;25.30;99.90
19174;DHT22;9719;49.322;8.536;2023-07-29T16:10:18;25.40;99.90
19174;DHT22;9719;49.322;8.536;2023-07-29T16:15:19;25.40;99.90
19174;DHT22;9719;49.322;8.536;2023-07-29T16:20:22;25.40;99.90
19174;DHT22;9719;49.322;8.536;2023-07-29T16:25:24;25.50;99.90
19174;DHT22;9719;49.322;8.536;2023-07-29T16:30:26;25.40;99.90
19174;DHT22;9719;49.322;8.536;2023-07-29T16:35:29;25.50;99.90
19174;DHT22;9719;49.322;8.536;2023-07-29T16:40:30;25.50;99.90
19174;DHT22;9719;49.322;8.536;2023-07-29T16:45:32;25.50;99.90
19174;DHT22;9719;49.322;8.536;2023-07-29T16:50:35;25.50;99.90
19174;DHT22;9719;49.322;8.536;2023-07-29T16:55:38;25.50;99.90
19174;DHT22;9719;49.322;8.536;2023-07-29T17:00:40;25.60;99.90
19174;DHT22;9719;49.322;8.536;2023-07-29T17:05:43;25.50;99.90
19174;DHT22;9719;49.322;8.536;2023-07-29T17:10:44;25.50;99.90
19174;DHT22;9719;49.322;8.536;2023-07-29T17:15:46;25.50;99.90
19174;DHT22;9719;49.322;8.536;2023-07-29T17:20:50;25.50;99.90
19174;DHT22;9719;49.322;8.536;2023-07-29T17:25:51;25.60;99.90
19174;DHT22;9719;49.322;8.536;2023-07-29T17:30:53;25.50;99.90
19174;DHT22;9719;49.322;8.536;2023-07-29T17:35:56;25.60;99.90
19174;DHT22;9719;49.322;8.536;2023-07-29T17:40:58;25.60;99.90
19174;DHT22;9719;49.322;8.536;2023-07-29T17:46:02;25.60;99.90
19174;DHT22;9719;49.322;8.536;2023-07-29T17:51:05;25.60;99.90
19174;DHT22;9719;49.322;8.536;2023-07-29T17:56:07;25.60;99.90
19174;DHT22;9719;49.322;8.536;2023-07-29T18:01:09;25.60;99.90
19174;DHT22;9719;49.322;8.536;2023-07-29T18:06:13;25.70;99.90
19174;DHT22;9719;49.322;8.536;2023-07-29T18:11:14;25.70;99.90
19174;DHT22;9719;49.322;8.536;2023-07-29T18:16:17;25.70;99.90
19174;DHT22;9719;49.322;8.536;2023-07-29T18:21:22;25.70;99.90
19174;DHT22;9719;49.322;8.536;2023-07-29T18:26:23;25.70;99.90
19174;DHT22;9719;49.322;8.536;2023-07-29T18:31:25;25.60;99.90
19174;DHT22;9719;49.322;8.536;2023-07-29T18:36:28;25.60;99.90
19174;DHT22;9719;49.322;8.536;2023-07-29T18:41:30;25.60;99.90
19174;DHT22;9719;49.322;8.536;2023-07-29T18:46:32;25.60;99.90
19174;DHT22;9719;49.322;8.536;2023-07-29T18:51:35;25.60;99.90
19174;DHT22;9719;49.322;8.536;2023-07-29T18:56:37;25.60;99.90
19174;DHT22;9719;49.322;8.536;2023-07-29T19:01:39;25.60;99.90
19174;DHT22;9719;49.322;8.536;2023-07-29T19:06:42;25.60;99.90
19174;DHT22;9719;49.322;8.536;2023-07-29T19:11:46;25.60;99.90
19174;DHT22;9719;49.322;8.536;2023-07-29T19:16:48;25.60;99.90
19174;DHT22;9719;49.322;8.536;2023-07-29T19:21:51;25.50;99.90
19174;DHT22;9719;49.322;8.536;2023-07-29T19:26:52;25.60;99.90
19174;DHT22;9719;49.322;8.536;2023-07-29T19:31:55;25.60;99.90
19174;DHT22;9719;49.322;8.536;2023-07-29T19:36:58;25.50;99.90
19174;DHT22;9719;49.322;8.536;2023-07-29T19:41:59;25.50;99.90
19174;DHT22;9719;49.322;8.536;2023-07-29T19:47:01;25.50;99.90
19174;DHT22;9719;49.322;8.536;2023-07-29T19:52:05;25.50;99.90
19174;DHT22;9719;49.322;8.536;2023-07-29T19:57:06;25.50;99.90
19174;DHT22;9719;49.322;8.536;2023-07-29T20:02:08;25.50;99.90
19174;DHT22;9719;49.322;8.536;2023-07-29T20:07:11;25.50;99.90
19174;DHT22;9719;49.322;8.536;2023-07-29T20:12:13;25.50;99.90
19174;DHT22;9719;49.322;8.536;2023-07-29T20:17:15;25.50;99.90
19174;DHT22;9719;49.322;8.536;2023-07-29T20:22:18;25.40;99.90
19174;DHT22;9719;49.322;8.536;2023-07-29T20:27:19;25.40;99.90
19174;DHT22;9719;49.322;8.536;2023-07-29T20:32:21;25.40;99.90
19174;DHT22;9719;49.322;8.536;2023-07-29T20:37:24;25.40;99.90
19174;DHT22;9719;49.322;8.536;2023-07-29T20:42:26;25.40;99.90
19174;DHT22;9719;49.322;8.536;2023-07-29T20:47:28;25.40;99.90
19174;DHT22;9719;49.322;8.536;2023-07-29T20:52:31;25.40;99.90
19174;DHT22;9719;49.322;8.536;2023-07-29T20:57:32;25.40;99.90
19174;DHT22;9719;49.322;8.536;2023-07-29T21:02:34;25.40;99.90
19174;DHT22;9719;49.322;8.536;2023-07-29T21:07:37;25.40;99.90
19174;DHT22;9719;49.322;8.536;2023-07-29T21:12:39;25.40;99.90
19174;DHT22;9719;49.322;8.536;2023-07-29T21:17:40;25.40;99.90
19174;DHT22;9719;49.322;8.536;2023-07-29T21:22:43;25.40;99.90
19174;DHT22;9719;49.322;8.536;2023-07-29T21:27:45;25.40;99.90
19174;DHT22;9719;49.322;8.536;2023-07-29T21:32:46;25.40;99.90
19174;DHT22;9719;49.322;8.536;2023-07-29T21:37:49;25.40;99.90
19174;DHT22;9719;49.322;8.536;2023-07-29T21:42:51;25.40;99.90
19174;DHT22;9719;49.322;8.536;2023-07-29T21:47:53;25.30;99.90
19174;DHT22;9719;49.322;8.536;2023-07-29T21:52:56;25.30;99.90
19174;DHT22;9719;49.322;8.536;2023-07-29T21:57:57;25.30;99.90
19174;DHT22;9719;49.322;8.536;2023-07-29T22:08:03;25.30;99.90
19174;DHT22;9719;49.322;8.536;2023-07-29T22:13:05;25.30;99.90
19174;DHT22;9719;49.322;8.536;2023-07-29T22:18:07;25.30;99.90
19174;DHT22;9719;49.322;8.536;2023-07-29T22:23:10;25.30;99.90
19174;DHT22;9719;49.322;8.536;2023-07-29T22:28:11;25.30;99.90
19174;DHT22;9719;49.322;8.536;2023-07-29T22:33:13;25.30;99.90
19174;DHT22;9719;49.322;8.536;2023-07-29T22:38:16;25.30;99.90
19174;DHT22;9719;49.322;8.536;2023-07-29T22:43:18;25.20;99.90
19174;DHT22;9719;49.322;8.536;2023-07-29T22:48:20;25.20;99.90
19174;DHT22;9719;49.322;8.536;2023-07-29T22:53:23;25.30;99.90
19174;DHT22;9719;49.322;8.536;2023-07-29T22:58:26;25.20;99.90
19174;DHT22;9719;49.322;8.536;2023-07-29T23:03:27;25.20;99.90
19174;DHT22;9719;49.322;8.536;2023-07-29T23:08:30;25.20;99.90
19174;DHT22;9719;49.322;8.536;2023-07-29T23:13:32;25.20;99.90
19174;DHT22;9719;49.322;8.536;2023-07-29T23:18:34;25.20;99.90
19174;DHT22;9719;49.322;8.536;2023-07-29T23:23:37;25.20;99.90
19174;DHT22;9719;49.322;8.536;2023-07-29T23:28:38;25.20;99.90
19174;DHT22;9719;49.322;8.536;2023-07-29T23:33:40;25.20;99.90
19174;DHT22;9719;49.322;8.536;2023-07-29T23:38:43;25.20;99.90
19174;DHT22;9719;49.322;8.536;2023-07-29T23:43:45;25.20;99.90
19174;DHT22;9719;49.322;8.536;2023-07-29T23:48:46;25.20;99.90
19174;DHT22;9719;49.322;8.536;2023-07-29T23:53:49;25.20;99.90
19174;DHT22;9719;49.322;8.536;2023-07-29T23:58:51;25.20;99.90
